Maple Lake, Minnesota
Current Conditions -  °F | °C
As of 1:15 PM on Friday 28 Nov 2014 (Local Time) from KMGG Reporting Station
Broken Clouds Broken Clouds  
Wind Chill:   Ceiling: 1700
Heat Index: 20°   Visibility: 10mi
Dew Point: 15°   Wind: 10mph
Humidity: 78%   Direction: 80°E
Pressure: 29.85"   Gusts: NA
Location:  45.23°N, 94°W
Report Text: KMGG 281915Z AUTO 08009KT 10SM BKN017 BKN060 BKN090 M06/M10 A2985 RMK AO2 T10651097
Loading
Personal Weather Stations






























Interactive Weather Map New forecast layout! Learn more

10-Day Weather Forecast

Advertisements
Track Severe Weather on mobile